sensor_id;sensor_type;location;lat;lon;timestamp;temperature;humidity
41058;DHT22;27499;48.884;2.258;2022-10-16T00:01:15;16.70;99.90
41058;DHT22;27499;48.884;2.258;2022-10-16T00:03:43;16.70;99.90
41058;DHT22;27499;48.884;2.258;2022-10-16T00:06:11;16.70;99.90
41058;DHT22;27499;48.884;2.258;2022-10-16T00:08:39;16.70;99.90
41058;DHT22;27499;48.884;2.258;2022-10-16T00:11:09;16.70;99.90
41058;DHT22;27499;48.884;2.258;2022-10-16T00:13:38;16.70;99.90
41058;DHT22;27499;48.884;2.258;2022-10-16T00:16:06;16.70;99.90
41058;DHT22;27499;48.884;2.258;2022-10-16T00:18:33;16.70;99.90
41058;DHT22;27499;48.884;2.258;2022-10-16T00:21:08;16.70;99.90
41058;DHT22;27499;48.884;2.258;2022-10-16T00:23:35;16.70;99.90
41058;DHT22;27499;48.884;2.258;2022-10-16T00:26:06;16.70;99.90
41058;DHT22;27499;48.884;2.258;2022-10-16T00:28:34;16.70;99.90
41058;DHT22;27499;48.884;2.258;2022-10-16T00:31:09;16.70;99.90
41058;DHT22;27499;48.884;2.258;2022-10-16T00:33:38;16.70;99.90
41058;DHT22;27499;48.884;2.258;2022-10-16T00:36:07;16.70;99.90
41058;DHT22;27499;48.884;2.258;2022-10-16T00:38:35;16.70;99.90
41058;DHT22;27499;48.884;2.258;2022-10-16T00:41:05;16.70;99.90
41058;DHT22;27499;48.884;2.258;2022-10-16T00:49:12;16.70;99.90
41058;DHT22;27499;48.884;2.258;2022-10-16T00:51:41;16.70;99.90
41058;DHT22;27499;48.884;2.258;2022-10-16T00:54:14;16.70;99.90
41058;DHT22;27499;48.884;2.258;2022-10-16T00:56:42;16.70;99.90
41058;DHT22;27499;48.884;2.258;2022-10-16T00:59:30;16.70;99.90
41058;DHT22;27499;48.884;2.258;2022-10-16T01:01:57;16.70;99.90
41058;DHT22;27499;48.884;2.258;2022-10-16T01:04:25;16.70;99.90
41058;DHT22;27499;48.884;2.258;2022-10-16T01:12:26;16.70;99.90
41058;DHT22;27499;48.884;2.258;2022-10-16T01:14:58;16.70;99.90
41058;DHT22;27499;48.884;2.258;2022-10-16T01:20:32;16.70;99.90
41058;DHT22;27499;48.884;2.258;2022-10-16T01:23:28;16.70;99.90
41058;DHT22;27499;48.884;2.258;2022-10-16T01:26:12;16.70;99.90
41058;DHT22;27499;48.884;2.258;2022-10-16T01:29:08;16.60;99.90
41058;DHT22;27499;48.884;2.258;2022-10-16T01:31:38;16.70;99.90
41058;DHT22;27499;48.884;2.258;2022-10-16T01:34:10;16.70;99.90
41058;DHT22;27499;48.884;2.258;2022-10-16T01:36:45;16.70;99.90
41058;DHT22;27499;48.884;2.258;2022-10-16T01:39:14;16.70;99.90
41058;DHT22;27499;48.884;2.258;2022-10-16T01:41:50;16.70;99.90
41058;DHT22;27499;48.884;2.258;2022-10-16T01:44:22;16.70;99.90
41058;DHT22;27499;48.884;2.258;2022-10-16T01:46:51;16.70;99.90
41058;DHT22;27499;48.884;2.258;2022-10-16T01:49:20;16.70;99.90
41058;DHT22;27499;48.884;2.258;2022-10-16T01:51:50;16.60;99.90
41058;DHT22;27499;48.884;2.258;2022-10-16T01:54:20;16.60;99.90
41058;DHT22;27499;48.884;2.258;2022-10-16T01:56:48;16.60;99.90
41058;DHT22;27499;48.884;2.258;2022-10-16T01:59:20;16.60;99.90
41058;DHT22;27499;48.884;2.258;2022-10-16T02:01:51;16.60;99.90
41058;DHT22;27499;48.884;2.258;2022-10-16T02:04:29;16.60;99.90
41058;DHT22;27499;48.884;2.258;2022-10-16T02:06:57;16.60;99.90
41058;DHT22;27499;48.884;2.258;2022-10-16T02:09:24;16.60;99.90
41058;DHT22;27499;48.884;2.258;2022-10-16T02:11:54;16.70;99.90
41058;DHT22;27499;48.884;2.258;2022-10-16T02:14:23;16.60;99.90
41058;DHT22;27499;48.884;2.258;2022-10-16T02:16:51;16.70;99.90
41058;DHT22;27499;48.884;2.258;2022-10-16T02:19:18;16.70;99.90
41058;DHT22;27499;48.884;2.258;2022-10-16T02:21:52;16.70;99.90
41058;DHT22;27499;48.884;2.258;2022-10-16T02:24:24;16.70;99.90
41058;DHT22;27499;48.884;2.258;2022-10-16T02:27:05;16.70;99.90
41058;DHT22;27499;48.884;2.258;2022-10-16T02:29:39;16.70;99.90
41058;DHT22;27499;48.884;2.258;2022-10-16T02:32:08;16.70;99.90
41058;DHT22;27499;48.884;2.258;2022-10-16T02:34:37;16.70;99.90
41058;DHT22;27499;48.884;2.258;2022-10-16T02:37:06;16.70;99.90
41058;DHT22;27499;48.884;2.258;2022-10-16T02:39:34;16.70;99.90
41058;DHT22;27499;48.884;2.258;2022-10-16T02:42:01;16.70;99.90
41058;DHT22;27499;48.884;2.258;2022-10-16T02:44:28;16.70;99.90
41058;DHT22;27499;48.884;2.258;2022-10-16T02:46:55;16.60;99.90
41058;DHT22;27499;48.884;2.258;2022-10-16T02:49:21;16.70;99.90
41058;DHT22;27499;48.884;2.258;2022-10-16T02:51:48;16.60;99.90
41058;DHT22;27499;48.884;2.258;2022-10-16T02:54:15;16.60;99.90
41058;DHT22;27499;48.884;2.258;2022-10-16T02:56:42;16.60;99.90
41058;DHT22;27499;48.884;2.258;2022-10-16T02:59:09;16.60;99.90
41058;DHT22;27499;48.884;2.258;2022-10-16T03:01:35;16.60;99.90
41058;DHT22;27499;48.884;2.258;2022-10-16T03:04:03;16.70;99.90
41058;DHT22;27499;48.884;2.258;2022-10-16T03:06:30;16.70;99.90
41058;DHT22;27499;48.884;2.258;2022-10-16T03:08:56;16.70;99.90
41058;DHT22;27499;48.884;2.258;2022-10-16T03:11:23;16.60;99.90
41058;DHT22;27499;48.884;2.258;2022-10-16T03:13:50;16.60;99.90
41058;DHT22;27499;48.884;2.258;2022-10-16T03:16:17;16.60;99.90
41058;DHT22;27499;48.884;2.258;2022-10-16T03:18:48;16.60;99.90
41058;DHT22;27499;48.884;2.258;2022-10-16T03:21:15;16.60;99.90
41058;DHT22;27499;48.884;2.258;2022-10-16T03:23:42;16.60;99.90
41058;DHT22;27499;48.884;2.258;2022-10-16T03:26:09;16.60;99.90
41058;DHT22;27499;48.884;2.258;2022-10-16T03:28:35;16.60;99.90
41058;DHT22;27499;48.884;2.258;2022-10-16T03:31:02;16.60;99.90
41058;DHT22;27499;48.884;2.258;2022-10-16T03:33:29;16.60;99.90
41058;DHT22;27499;48.884;2.258;2022-10-16T03:35:56;16.50;99.90
41058;DHT22;27499;48.884;2.258;2022-10-16T03:38:23;16.50;99.90
41058;DHT22;27499;48.884;2.258;2022-10-16T03:40:50;16.50;99.90
41058;DHT22;27499;48.884;2.258;2022-10-16T03:43:16;16.50;99.90
41058;DHT22;27499;48.884;2.258;2022-10-16T03:45:43;16.50;99.90
41058;DHT22;27499;48.884;2.258;2022-10-16T03:48:10;16.40;99.90
41058;DHT22;27499;48.884;2.258;2022-10-16T03:50:37;16.40;99.90
41058;DHT22;27499;48.884;2.258;2022-10-16T03:53:04;16.40;99.90
41058;DHT22;27499;48.884;2.258;2022-10-16T03:55:31;16.40;99.90
41058;DHT22;27499;48.884;2.258;2022-10-16T03:57:57;16.40;99.90
41058;DHT22;27499;48.884;2.258;2022-10-16T04:00:24;16.40;99.90
41058;DHT22;27499;48.884;2.258;2022-10-16T04:02:51;16.50;99.90
41058;DHT22;27499;48.884;2.258;2022-10-16T04:05:18;16.50;99.90
41058;DHT22;27499;48.884;2.258;2022-10-16T04:07:45;16.50;99.90
41058;DHT22;27499;48.884;2.258;2022-10-16T04:10:12;16.50;99.90
41058;DHT22;27499;48.884;2.258;2022-10-16T04:12:38;16.50;99.90
41058;DHT22;27499;48.884;2.258;2022-10-16T04:15:06;16.50;99.90
41058;DHT22;27499;48.884;2.258;2022-10-16T04:17:32;16.50;99.90
41058;DHT22;27499;48.884;2.258;2022-10-16T04:19:59;16.50;99.90
41058;DHT22;27499;48.884;2.258;2022-10-16T04:22:26;16.50;99.90
41058;DHT22;27499;48.884;2.258;2022-10-16T04:25:13;16.50;99.90
41058;DHT22;27499;48.884;2.258;2022-10-16T04:27:40;16.50;99.90
41058;DHT22;27499;48.884;2.258;2022-10-16T04:30:11;16.50;99.90
41058;DHT22;27499;48.884;2.258;2022-10-16T04:32:38;16.50;99.90
41058;DHT22;27499;48.884;2.258;2022-10-16T04:35:06;16.40;99.90
41058;DHT22;27499;48.884;2.258;2022-10-16T04:37:33;16.50;99.90
41058;DHT22;27499;48.884;2.258;2022-10-16T04:40:00;16.40;99.90
41058;DHT22;27499;48.884;2.258;2022-10-16T04:42:27;16.40;99.90
41058;DHT22;27499;48.884;2.258;2022-10-16T04:44:53;16.40;99.90
41058;DHT22;27499;48.884;2.258;2022-10-16T04:47:20;16.40;99.90
41058;DHT22;27499;48.884;2.258;2022-10-16T04:49:47;16.50;99.90
41058;DHT22;27499;48.884;2.258;2022-10-16T04:52:14;16.50;99.90
41058;DHT22;27499;48.884;2.258;2022-10-16T04:54:41;16.50;99.90
41058;DHT22;27499;48.884;2.258;2022-10-16T04:57:08;16.50;99.90
41058;DHT22;27499;48.884;2.258;2022-10-16T04:59:35;16.50;99.90
41058;DHT22;27499;48.884;2.258;2022-10-16T05:02:02;16.50;99.90
41058;DHT22;27499;48.884;2.258;2022-10-16T05:04:29;16.50;99.90
41058;DHT22;27499;48.884;2.258;2022-10-16T05:06:56;16.50;99.90
41058;DHT22;27499;48.884;2.258;2022-10-16T05:09:23;16.50;99.90
41058;DHT22;27499;48.884;2.258;2022-10-16T05:11:50;16.50;99.90
41058;DHT22;27499;48.884;2.258;2022-10-16T05:14:16;16.50;99.90
41058;DHT22;27499;48.884;2.258;2022-10-16T05:16:44;16.50;99.90
41058;DHT22;27499;48.884;2.258;2022-10-16T05:19:10;16.50;99.90
41058;DHT22;27499;48.884;2.258;2022-10-16T05:21:54;16.50;99.90
41058;DHT22;27499;48.884;2.258;2022-10-16T05:24:21;16.50;99.90
41058;DHT22;27499;48.884;2.258;2022-10-16T05:26:49;16.50;99.90
41058;DHT22;27499;48.884;2.258;2022-10-16T05:29:16;16.50;99.90
41058;DHT22;27499;48.884;2.258;2022-10-16T05:31:43;16.50;99.90
41058;DHT22;27499;48.884;2.258;2022-10-16T05:34:09;16.40;99.90
41058;DHT22;27499;48.884;2.258;2022-10-16T05:36:36;16.40;99.90
41058;DHT22;27499;48.884;2.258;2022-10-16T05:39:03;16.40;99.90
41058;DHT22;27499;48.884;2.258;2022-10-16T05:41:30;16.40;99.90
41058;DHT22;27499;48.884;2.258;2022-10-16T05:43:58;16.40;99.90
41058;DHT22;27499;48.884;2.258;2022-10-16T05:46:25;16.40;99.90
41058;DHT22;27499;48.884;2.258;2022-10-16T05:48:52;16.40;99.90
41058;DHT22;27499;48.884;2.258;2022-10-16T05:51:19;16.40;99.90
41058;DHT22;27499;48.884;2.258;2022-10-16T05:53:46;16.40;99.90
41058;DHT22;27499;48.884;2.258;2022-10-16T05:56:14;16.40;99.90
41058;DHT22;27499;48.884;2.258;2022-10-16T05:58:41;16.40;99.90
41058;DHT22;27499;48.884;2.258;2022-10-16T06:01:12;16.40;99.90
41058;DHT22;27499;48.884;2.258;2022-10-16T06:03:39;16.40;99.90
41058;DHT22;27499;48.884;2.258;2022-10-16T06:06:14;16.40;99.90
41058;DHT22;27499;48.884;2.258;2022-10-16T06:08:42;16.40;99.90
41058;DHT22;27499;48.884;2.258;2022-10-16T06:11:12;16.40;99.90
41058;DHT22;27499;48.884;2.258;2022-10-16T06:13:40;16.30;99.90
41058;DHT22;27499;48.884;2.258;2022-10-16T06:16:10;16.30;99.90
41058;DHT22;27499;48.884;2.258;2022-10-16T06:18:37;16.30;99.90
41058;DHT22;27499;48.884;2.258;2022-10-16T06:21:12;16.30;99.90
41058;DHT22;27499;48.884;2.258;2022-10-16T06:23:40;16.30;99.90
41058;DHT22;27499;48.884;2.258;2022-10-16T06:26:10;16.30;99.90
41058;DHT22;27499;48.884;2.258;2022-10-16T06:28:37;16.30;99.90
41058;DHT22;27499;48.884;2.258;2022-10-16T06:31:06;16.20;99.90
41058;DHT22;27499;48.884;2.258;2022-10-16T06:33:34;16.20;99.90
41058;DHT22;27499;48.884;2.258;2022-10-16T06:38:33;16.10;99.90
41058;DHT22;27499;48.884;2.258;2022-10-16T06:41:00;16.20;99.90
41058;DHT22;27499;48.884;2.258;2022-10-16T06:43:29;16.10;99.90
41058;DHT22;27499;48.884;2.258;2022-10-16T06:45:59;16.10;99.90
41058;DHT22;27499;48.884;2.258;2022-10-16T06:48:27;16.10;99.90
41058;DHT22;27499;48.884;2.258;2022-10-16T06:51:15;16.10;99.90
41058;DHT22;27499;48.884;2.258;2022-10-16T06:53:50;16.00;99.90
41058;DHT22;27499;48.884;2.258;2022-10-16T06:56:30;16.00;99.90
41058;DHT22;27499;48.884;2.258;2022-10-16T06:58:58;16.00;99.90
41058;DHT22;27499;48.884;2.258;2022-10-16T07:01:26;16.00;99.90
41058;DHT22;27499;48.884;2.258;2022-10-16T07:03:53;16.00;99.90
41058;DHT22;27499;48.884;2.258;2022-10-16T07:06:23;16.10;99.90
41058;DHT22;27499;48.884;2.258;2022-10-16T07:08:50;16.10;99.90
41058;DHT22;27499;48.884;2.258;2022-10-16T07:11:22;16.20;99.90
41058;DHT22;27499;48.884;2.258;2022-10-16T07:13:50;16.20;99.90
41058;DHT22;27499;48.884;2.258;2022-10-16T07:16:27;16.30;99.90
41058;DHT22;27499;48.884;2.258;2022-10-16T07:18:55;16.30;99.90
41058;DHT22;27499;48.884;2.258;2022-10-16T07:21:29;16.30;99.90
41058;DHT22;27499;48.884;2.258;2022-10-16T07:23:59;16.30;99.90
41058;DHT22;27499;48.884;2.258;2022-10-16T07:26:29;16.30;99.90
41058;DHT22;27499;48.884;2.258;2022-10-16T07:28:57;16.30;99.90
41058;DHT22;27499;48.884;2.258;2022-10-16T07:31:25;16.30;99.90
41058;DHT22;27499;48.884;2.258;2022-10-16T07:33:52;16.30;99.90
41058;DHT22;27499;48.884;2.258;2022-10-16T07:36:19;16.40;99.90
41058;DHT22;27499;48.884;2.258;2022-10-16T07:38:47;16.40;99.90
41058;DHT22;27499;48.884;2.258;2022-10-16T07:41:16;16.40;99.90
41058;DHT22;27499;48.884;2.258;2022-10-16T07:43:47;16.50;99.90
41058;DHT22;27499;48.884;2.258;2022-10-16T07:46:15;16.50;99.90
41058;DHT22;27499;48.884;2.258;2022-10-16T07:48:43;16.50;99.90
41058;DHT22;27499;48.884;2.258;2022-10-16T07:51:15;16.50;99.90
41058;DHT22;27499;48.884;2.258;2022-10-16T07:53:42;16.60;99.90
41058;DHT22;27499;48.884;2.258;2022-10-16T07:56:09;16.60;99.90
41058;DHT22;27499;48.884;2.258;2022-10-16T07:58:37;16.70;99.90
41058;DHT22;27499;48.884;2.258;2022-10-16T08:01:06;16.70;99.90
41058;DHT22;27499;48.884;2.258;2022-10-16T08:03:33;16.70;99.90
41058;DHT22;27499;48.884;2.258;2022-10-16T08:06:02;16.80;99.90
41058;DHT22;27499;48.884;2.258;2022-10-16T08:08:29;16.80;99.90
41058;DHT22;27499;48.884;2.258;2022-10-16T08:10:56;16.80;99.90
41058;DHT22;27499;48.884;2.258;2022-10-16T08:13:23;16.80;99.90
41058;DHT22;27499;48.884;2.258;2022-10-16T08:15:50;16.80;99.90
41058;DHT22;27499;48.884;2.258;2022-10-16T08:18:17;16.90;99.90
41058;DHT22;27499;48.884;2.258;2022-10-16T08:20:44;16.90;99.90
41058;DHT22;27499;48.884;2.258;2022-10-16T08:23:12;16.90;99.90
41058;DHT22;27499;48.884;2.258;2022-10-16T08:25:40;16.90;99.90
41058;DHT22;27499;48.884;2.258;2022-10-16T08:28:09;16.90;99.90
41058;DHT22;27499;48.884;2.258;2022-10-16T08:30:36;16.90;99.90
41058;DHT22;27499;48.884;2.258;2022-10-16T08:33:04;16.90;99.90
41058;DHT22;27499;48.884;2.258;2022-10-16T08:35:30;16.90;99.90
41058;DHT22;27499;48.884;2.258;2022-10-16T08:37:57;16.90;99.90
41058;DHT22;27499;48.884;2.258;2022-10-16T08:40:29;16.90;99.90
41058;DHT22;27499;48.884;2.258;2022-10-16T08:43:34;17.00;99.90
41058;DHT22;27499;48.884;2.258;2022-10-16T08:46:26;17.00;99.90
41058;DHT22;27499;48.884;2.258;2022-10-16T08:48:57;17.00;99.90
41058;DHT22;27499;48.884;2.258;2022-10-16T08:51:32;17.00;99.90
41058;DHT22;27499;48.884;2.258;2022-10-16T08:54:04;17.10;99.90
41058;DHT22;27499;48.884;2.258;2022-10-16T08:56:31;17.10;99.90
41058;DHT22;27499;48.884;2.258;2022-10-16T08:59:00;17.10;99.90
41058;DHT22;27499;48.884;2.258;2022-10-16T09:01:38;17.10;99.90
41058;DHT22;27499;48.884;2.258;2022-10-16T09:06:56;17.10;99.90
41058;DHT22;27499;48.884;2.258;2022-10-16T09:17:52;17.30;99.90
41058;DHT22;27499;48.884;2.258;2022-10-16T09:20:34;17.30;99.90
41058;DHT22;27499;48.884;2.258;2022-10-16T09:25:32;17.50;99.90
41058;DHT22;27499;48.884;2.258;2022-10-16T09:28:00;17.50;99.90
41058;DHT22;27499;48.884;2.258;2022-10-16T09:30:28;17.50;99.90
41058;DHT22;27499;48.884;2.258;2022-10-16T09:32:58;17.60;99.90
41058;DHT22;27499;48.884;2.258;2022-10-16T09:35:37;17.60;99.90
41058;DHT22;27499;48.884;2.258;2022-10-16T09:38:05;17.60;99.90
41058;DHT22;27499;48.884;2.258;2022-10-16T09:40:35;17.70;99.90
41058;DHT22;27499;48.884;2.258;2022-10-16T09:43:28;17.70;99.90
41058;DHT22;27499;48.884;2.258;2022-10-16T09:48:37;17.70;99.90
41058;DHT22;27499;48.884;2.258;2022-10-16T09:51:13;17.70;99.90
41058;DHT22;27499;48.884;2.258;2022-10-16T09:53:44;17.70;99.90
41058;DHT22;27499;48.884;2.258;2022-10-16T09:56:20;17.70;99.90
41058;DHT22;27499;48.884;2.258;2022-10-16T09:58:52;17.70;99.90
41058;DHT22;27499;48.884;2.258;2022-10-16T10:01:21;17.70;99.90
41058;DHT22;27499;48.884;2.258;2022-10-16T10:03:50;17.70;99.90
41058;DHT22;27499;48.884;2.258;2022-10-16T10:06:24;17.70;99.90
41058;DHT22;27499;48.884;2.258;2022-10-16T10:19:48;17.80;99.90
41058;DHT22;27499;48.884;2.258;2022-10-16T10:27:43;17.90;99.90
41058;DHT22;27499;48.884;2.258;2022-10-16T10:30:16;18.00;99.90
41058;DHT22;27499;48.884;2.258;2022-10-16T10:38:39;18.00;99.90
41058;DHT22;27499;48.884;2.258;2022-10-16T10:44:14;18.00;99.90
41058;DHT22;27499;48.884;2.258;2022-10-16T10:46:51;18.00;99.90
41058;DHT22;27499;48.884;2.258;2022-10-16T10:57:32;18.10;99.90
41058;DHT22;27499;48.884;2.258;2022-10-16T11:03:35;18.10;99.90
41058;DHT22;27499;48.884;2.258;2022-10-16T11:06:17;18.20;99.90
41058;DHT22;27499;48.884;2.258;2022-10-16T11:14:30;18.30;99.90
41058;DHT22;27499;48.884;2.258;2022-10-16T11:20:03;18.30;99.90
41058;DHT22;27499;48.884;2.258;2022-10-16T11:22:41;18.40;99.90
41058;DHT22;27499;48.884;2.258;2022-10-16T11:25:36;18.40;99.90
41058;DHT22;27499;48.884;2.258;2022-10-16T11:28:16;18.40;99.90
41058;DHT22;27499;48.884;2.258;2022-10-16T11:33:47;18.50;99.90
41058;DHT22;27499;48.884;2.258;2022-10-16T11:36:23;18.40;99.90
41058;DHT22;27499;48.884;2.258;2022-10-16T11:38:58;18.50;99.90
41058;DHT22;27499;48.884;2.258;2022-10-16T11:44:55;18.50;99.90
41058;DHT22;27499;48.884;2.258;2022-10-16T11:50:27;18.50;99.90
41058;DHT22;27499;48.884;2.258;2022-10-16T11:53:13;18.40;99.90
41058;DHT22;27499;48.884;2.258;2022-10-16T11:55:42;18.50;99.90
41058;DHT22;27499;48.884;2.258;2022-10-16T12:00:59;18.50;99.90
41058;DHT22;27499;48.884;2.258;2022-10-16T12:03:42;18.50;99.90
41058;DHT22;27499;48.884;2.258;2022-10-16T12:09:04;18.50;99.90
41058;DHT22;27499;48.884;2.258;2022-10-16T12:11:37;18.50;99.90
41058;DHT22;27499;48.884;2.258;2022-10-16T12:14:07;18.50;99.90
41058;DHT22;27499;48.884;2.258;2022-10-16T12:19:22;18.50;99.90
41058;DHT22;27499;48.884;2.258;2022-10-16T12:21:51;18.60;99.90
41058;DHT22;27499;48.884;2.258;2022-10-16T12:26:49;18.60;99.90
41058;DHT22;27499;48.884;2.258;2022-10-16T12:29:26;18.60;99.90
41058;DHT22;27499;48.884;2.258;2022-10-16T12:31:55;18.70;99.90
41058;DHT22;27499;48.884;2.258;2022-10-16T12:34:38;18.70;99.90
41058;DHT22;27499;48.884;2.258;2022-10-16T12:39:54;18.70;99.90
41058;DHT22;27499;48.884;2.258;2022-10-16T12:44:55;18.70;99.90
41058;DHT22;27499;48.884;2.258;2022-10-16T12:50:29;18.80;99.90
41058;DHT22;27499;48.884;2.258;2022-10-16T12:52:58;18.80;99.90
41058;DHT22;27499;48.884;2.258;2022-10-16T12:55:26;18.80;99.90
41058;DHT22;27499;48.884;2.258;2022-10-16T13:15:14;19.00;99.90
41058;DHT22;27499;48.884;2.258;2022-10-16T13:17:58;19.00;99.90
41058;DHT22;27499;48.884;2.258;2022-10-16T13:23:33;19.00;99.90
41058;DHT22;27499;48.884;2.258;2022-10-16T13:26:29;19.00;99.90
41058;DHT22;27499;48.884;2.258;2022-10-16T13:28:59;19.00;99.90
41058;DHT22;27499;48.884;2.258;2022-10-16T13:31:28;19.00;99.90
41058;DHT22;27499;48.884;2.258;2022-10-16T13:33:57;19.00;99.90
41058;DHT22;27499;48.884;2.258;2022-10-16T13:36:50;19.10;99.90
41058;DHT22;27499;48.884;2.258;2022-10-16T13:39:30;19.10;99.90
41058;DHT22;27499;48.884;2.258;2022-10-16T13:44:54;19.10;99.90
41058;DHT22;27499;48.884;2.258;2022-10-16T13:47:28;19.10;99.90
41058;DHT22;27499;48.884;2.258;2022-10-16T13:50:15;19.10;99.90
41058;DHT22;27499;48.884;2.258;2022-10-16T13:52:42;19.10;99.90
41058;DHT22;27499;48.884;2.258;2022-10-16T13:55:13;19.10;99.90
41058;DHT22;27499;48.884;2.258;2022-10-16T13:57:42;19.10;99.90
41058;DHT22;27499;48.884;2.258;2022-10-16T14:00:20;19.10;99.90
41058;DHT22;27499;48.884;2.258;2022-10-16T14:02:55;19.10;99.90
41058;DHT22;27499;48.884;2.258;2022-10-16T14:05:24;19.10;99.90
41058;DHT22;27499;48.884;2.258;2022-10-16T14:07:52;19.20;99.90
41058;DHT22;27499;48.884;2.258;2022-10-16T14:10:27;19.20;99.90
41058;DHT22;27499;48.884;2.258;2022-10-16T14:13:07;19.20;99.90
41058;DHT22;27499;48.884;2.258;2022-10-16T14:15:35;19.20;99.90
41058;DHT22;27499;48.884;2.258;2022-10-16T14:18:03;19.20;99.90
41058;DHT22;27499;48.884;2.258;2022-10-16T14:20:33;19.20;99.90
41058;DHT22;27499;48.884;2.258;2022-10-16T14:23:18;19.20;99.90
41058;DHT22;27499;48.884;2.258;2022-10-16T14:25:46;19.20;99.90
41058;DHT22;27499;48.884;2.258;2022-10-16T14:28:21;19.20;99.90
41058;DHT22;27499;48.884;2.258;2022-10-16T14:30:56;19.20;99.90
41058;DHT22;27499;48.884;2.258;2022-10-16T14:33:25;19.20;99.90
41058;DHT22;27499;48.884;2.258;2022-10-16T14:36:16;19.20;99.90
41058;DHT22;27499;48.884;2.258;2022-10-16T14:41:27;19.30;99.90
41058;DHT22;27499;48.884;2.258;2022-10-16T14:43:56;19.30;99.90
41058;DHT22;27499;48.884;2.258;2022-10-16T14:46:38;19.30;99.90
41058;DHT22;27499;48.884;2.258;2022-10-16T14:49:18;19.30;99.90
41058;DHT22;27499;48.884;2.258;2022-10-16T14:51:47;19.30;99.90
41058;DHT22;27499;48.884;2.258;2022-10-16T14:54:16;19.30;99.90
41058;DHT22;27499;48.884;2.258;2022-10-16T14:56:50;19.30;99.90
41058;DHT22;27499;48.884;2.258;2022-10-16T15:01:47;19.40;99.90
41058;DHT22;27499;48.884;2.258;2022-10-16T15:04:15;19.40;99.90
41058;DHT22;27499;48.884;2.258;2022-10-16T15:06:43;19.40;99.90
41058;DHT22;27499;48.884;2.258;2022-10-16T15:09:09;19.40;99.90
41058;DHT22;27499;48.884;2.258;2022-10-16T15:11:37;19.30;99.90
41058;DHT22;27499;48.884;2.258;2022-10-16T15:14:04;19.30;99.90
41058;DHT22;27499;48.884;2.258;2022-10-16T15:16:33;19.40;99.90
41058;DHT22;27499;48.884;2.258;2022-10-16T15:18:59;19.40;99.90
41058;DHT22;27499;48.884;2.258;2022-10-16T15:21:31;19.40;99.90
41058;DHT22;27499;48.884;2.258;2022-10-16T15:23:59;19.40;99.90
41058;DHT22;27499;48.884;2.258;2022-10-16T15:26:28;19.40;99.90
41058;DHT22;27499;48.884;2.258;2022-10-16T15:28:55;19.40;99.90
41058;DHT22;27499;48.884;2.258;2022-10-16T15:31:23;19.40;99.90
41058;DHT22;27499;48.884;2.258;2022-10-16T15:33:51;19.40;99.90
41058;DHT22;27499;48.884;2.258;2022-10-16T15:36:32;19.40;99.90
41058;DHT22;27499;48.884;2.258;2022-10-16T15:39:04;19.40;99.90
41058;DHT22;27499;48.884;2.258;2022-10-16T15:41:31;19.30;99.90
41058;DHT22;27499;48.884;2.258;2022-10-16T15:43:58;19.40;99.90
41058;DHT22;27499;48.884;2.258;2022-10-16T15:46:24;19.30;99.90
41058;DHT22;27499;48.884;2.258;2022-10-16T15:48:56;19.30;99.90
41058;DHT22;27499;48.884;2.258;2022-10-16T15:51:24;19.30;99.90
41058;DHT22;27499;48.884;2.258;2022-10-16T15:53:51;19.30;99.90
41058;DHT22;27499;48.884;2.258;2022-10-16T15:56:19;19.30;99.90
41058;DHT22;27499;48.884;2.258;2022-10-16T15:58:46;19.30;99.90
41058;DHT22;27499;48.884;2.258;2022-10-16T16:01:13;19.40;99.90
41058;DHT22;27499;48.884;2.258;2022-10-16T16:03:40;19.30;99.90
41058;DHT22;27499;48.884;2.258;2022-10-16T16:06:10;19.30;99.90
41058;DHT22;27499;48.884;2.258;2022-10-16T16:08:38;19.40;99.90
41058;DHT22;27499;48.884;2.258;2022-10-16T16:11:07;19.40;99.90
41058;DHT22;27499;48.884;2.258;2022-10-16T16:13:35;19.40;99.90
41058;DHT22;27499;48.884;2.258;2022-10-16T16:16:16;19.40;99.90
41058;DHT22;27499;48.884;2.258;2022-10-16T16:18:43;19.30;99.90
41058;DHT22;27499;48.884;2.258;2022-10-16T16:21:11;19.30;99.90
41058;DHT22;27499;48.884;2.258;2022-10-16T16:23:38;19.20;99.90
41058;DHT22;27499;48.884;2.258;2022-10-16T16:26:22;19.20;99.90
41058;DHT22;27499;48.884;2.258;2022-10-16T16:28:53;19.20;99.90
41058;DHT22;27499;48.884;2.258;2022-10-16T16:31:24;19.10;99.90
41058;DHT22;27499;48.884;2.258;2022-10-16T16:33:51;19.10;99.90
41058;DHT22;27499;48.884;2.258;2022-10-16T16:36:18;19.10;99.90
41058;DHT22;27499;48.884;2.258;2022-10-16T16:38:46;19.10;99.90
41058;DHT22;27499;48.884;2.258;2022-10-16T16:43:43;19.20;99.90
41058;DHT22;27499;48.884;2.258;2022-10-16T16:46:11;19.20;99.90
41058;DHT22;27499;48.884;2.258;2022-10-16T16:48:38;19.20;99.90
41058;DHT22;27499;48.884;2.258;2022-10-16T16:51:07;19.20;99.90
41058;DHT22;27499;48.884;2.258;2022-10-16T16:53:37;19.20;99.90
41058;DHT22;27499;48.884;2.258;2022-10-16T16:56:04;19.10;99.90
41058;DHT22;27499;48.884;2.258;2022-10-16T16:58:32;19.10;99.90
41058;DHT22;27499;48.884;2.258;2022-10-16T17:01:00;19.20;99.90
41058;DHT22;27499;48.884;2.258;2022-10-16T17:03:46;19.20;99.90
41058;DHT22;27499;48.884;2.258;2022-10-16T17:06:17;19.10;99.90
41058;DHT22;27499;48.884;2.258;2022-10-16T17:08:47;19.10;99.90
41058;DHT22;27499;48.884;2.258;2022-10-16T17:11:16;19.10;99.90
41058;DHT22;27499;48.884;2.258;2022-10-16T17:13:44;19.10;99.90
41058;DHT22;27499;48.884;2.258;2022-10-16T17:16:10;19.10;99.90
41058;DHT22;27499;48.884;2.258;2022-10-16T17:18:37;19.10;99.90
41058;DHT22;27499;48.884;2.258;2022-10-16T17:21:06;19.10;99.90
41058;DHT22;27499;48.884;2.258;2022-10-16T17:23:35;19.00;99.90
41058;DHT22;27499;48.884;2.258;2022-10-16T17:26:12;19.00;99.90
41058;DHT22;27499;48.884;2.258;2022-10-16T17:28:39;18.90;99.90
41058;DHT22;27499;48.884;2.258;2022-10-16T17:31:17;18.90;99.90
41058;DHT22;27499;48.884;2.258;2022-10-16T17:33:45;18.80;99.90
41058;DHT22;27499;48.884;2.258;2022-10-16T17:36:13;18.80;99.90
41058;DHT22;27499;48.884;2.258;2022-10-16T17:38:43;18.70;99.90
41058;DHT22;27499;48.884;2.258;2022-10-16T17:41:15;18.70;99.90
41058;DHT22;27499;48.884;2.258;2022-10-16T17:43:43;18.70;99.90
41058;DHT22;27499;48.884;2.258;2022-10-16T17:46:11;18.60;99.90
41058;DHT22;27499;48.884;2.258;2022-10-16T17:48:40;18.70;99.90
41058;DHT22;27499;48.884;2.258;2022-10-16T17:51:09;18.60;99.90
41058;DHT22;27499;48.884;2.258;2022-10-16T17:53:38;18.60;99.90
41058;DHT22;27499;48.884;2.258;2022-10-16T17:56:07;18.60;99.90
41058;DHT22;27499;48.884;2.258;2022-10-16T17:58:34;18.60;99.90
41058;DHT22;27499;48.884;2.258;2022-10-16T18:01:02;18.50;99.90
41058;DHT22;27499;48.884;2.258;2022-10-16T18:03:36;18.50;99.90
41058;DHT22;27499;48.884;2.258;2022-10-16T18:06:03;18.50;99.90
41058;DHT22;27499;48.884;2.258;2022-10-16T18:08:30;18.50;99.90